Time;durP1;ratioP1;P1;durP2;ratioP2;P2;SDS_P1;SDS_P2;PMS_P1;PMS_P2;Temp;Humidity;BMP_temperature;BMP_pressure;BME280_temperature;BME280_humidity;BME280_pressure;Samples;Min_cycle;Max_cycle;Signal;HPM_P1;HPM_P2
2023/02/13 00:00:01;;;;;;;18.07;13.37;;;5.60;41.00;;;;;;10480732;28;20298;-70
2023/02/13 00:05:06;;;;;;;15.00;12.60;;;5.60;41.20;;;;;;10480099;28;20281;-70
2023/02/13 00:10:10;;;;;;;14.03;12.53;;;5.60;41.40;;;;;;10479783;28;20240;-70
2023/02/13 00:15:14;;;;;;;15.17;13.57;;;5.60;41.20;;;;;;10482875;28;20240;-72
2023/02/13 00:20:18;;;;;;;14.73;12.60;;;5.60;41.20;;;;;;10482239;28;20274;-72
2023/02/13 00:25:21;;;;;;;16.47;14.37;;;5.60;41.40;;;;;;10481976;28;20240;-72
2023/02/13 00:30:24;;;;;;;16.00;14.30;;;5.60;41.30;;;;;;10477621;28;20224;-71
2023/02/13 00:35:29;;;;;;;15.07;13.17;;;5.60;41.40;;;;;;10478758;28;20239;-72
2023/02/13 00:40:32;;;;;;;16.93;14.07;;;5.60;41.60;;;;;;10479167;28;20678;-72
2023/02/13 00:45:35;;;;;;;15.57;13.87;;;5.60;41.30;;;;;;10479129;28;20237;-72
2023/02/13 00:50:39;;;;;;;17.97;14.13;;;5.60;41.40;;;;;;10477130;28;20225;-72
2023/02/13 00:55:43;;;;;;;17.47;14.63;;;5.50;41.50;;;;;;10482607;28;20235;-72
2023/02/13 01:00:47;;;;;;;19.03;14.63;;;5.40;41.30;;;;;;10481060;28;20235;-72
2023/02/13 01:05:52;;;;;;;15.30;13.70;;;5.40;41.50;;;;;;10475740;28;20232;-72
2023/02/13 01:10:56;;;;;;;15.37;12.57;;;5.30;41.90;;;;;;10482002;28;20232;-72
2023/02/13 01:15:59;;;;;;;14.73;13.23;;;5.30;41.80;;;;;;10472919;28;20256;-72
2023/02/13 01:21:06;;;;;;;11.97;10.60;;;5.30;41.70;;;;;;10474046;28;20270;-72
2023/02/13 01:26:16;;;;;;;13.60;12.27;;;5.20;42.00;;;;;;10477187;28;20236;-72
2023/02/13 01:31:19;;;;;;;14.93;13.33;;;5.30;42.20;;;;;;10475988;28;20239;-72
2023/02/13 01:36:24;;;;;;;14.30;12.80;;;5.30;41.80;;;;;;10475515;28;20258;-72
2023/02/13 01:41:28;;;;;;;14.40;12.90;;;5.30;42.10;;;;;;10476171;28;20231;-72
2023/02/13 01:46:35;;;;;;;19.27;11.77;;;5.40;42.00;;;;;;10475266;28;20236;-72
2023/02/13 01:51:41;;;;;;;11.13;10.13;;;5.40;42.00;;;;;;10487383;28;20227;-72
2023/02/13 01:56:47;;;;;;;12.77;11.47;;;5.40;41.90;;;;;;10485669;28;20232;-72
2023/02/13 02:01:50;;;;;;;12.60;11.37;;;5.50;42.00;;;;;;10485750;28;20232;-72
2023/02/13 02:06:58;;;;;;;13.23;11.93;;;5.50;41.80;;;;;;10483098;28;20262;-72
2023/02/13 02:12:04;;;;;;;12.63;11.43;;;5.50;42.10;;;;;;10484988;28;20235;-72
2023/02/13 02:17:08;;;;;;;19.07;12.03;;;5.60;41.90;;;;;;10484108;28;20224;-72
2023/02/13 02:22:46;;;;;;;13.33;12.03;;;5.60;41.60;;;;;;10483669;28;20239;-72
2023/02/13 02:28:08;;;;;;;13.90;11.93;;;5.60;42.40;;;;;;10483249;28;20239;-72
2023/02/13 02:33:26;;;;;;;10.33;9.33;;;5.60;42.30;;;;;;10481159;28;21220;-72
2023/02/13 02:38:46;;;;;;;12.63;11.43;;;5.60;42.10;;;;;;10478396;28;20629;-72
2023/02/13 02:44:00;;;;;;;40.40;11.37;;;5.50;42.20;;;;;;10480700;28;20603;-72
2023/02/13 03:30:05;;;;;;;48.60;11.03;;;5.10;42.00;;;;;;10482112;28;20664;-72
2023/02/13 03:32:52;;;;;;;40.53;10.60;;;5.10;42.00;;;;;;10479586;28;20227;-72
2023/02/13 03:38:07;;;;;;;11.93;10.73;;;5.00;42.10;;;;;;10476233;28;20239;-72
2023/02/13 03:43:13;;;;;;;27.30;10.60;;;5.00;42.60;;;;;;10477941;28;20239;-72
2023/02/13 03:53:46;;;;;;;11.73;10.53;;;5.00;42.20;;;;;;10477434;28;20248;-72
2023/02/13 04:04:22;;;;;;;11.43;10.33;;;5.00;42.50;;;;;;10482623;28;20232;-73
2023/02/13 04:09:29;;;;;;;10.80;9.80;;;5.10;42.80;;;;;;10479915;28;20239;-72
2023/02/13 04:14:37;;;;;;;12.40;9.43;;;5.10;42.50;;;;;;10480870;28;20228;-72
2023/02/13 04:19:41;;;;;;;11.17;10.07;;;5.10;42.50;;;;;;10482697;28;20229;-73
2023/02/13 04:24:46;;;;;;;10.10;9.10;;;5.20;42.20;;;;;;10483281;28;20531;-74
2023/02/13 04:29:49;;;;;;;11.93;10.53;;;5.20;42.20;;;;;;10472455;28;20278;-73
2023/02/13 04:34:52;;;;;;;12.40;9.87;;;5.20;42.00;;;;;;10480616;28;20239;-73
2023/02/13 04:39:56;;;;;;;10.33;9.33;;;5.20;41.90;;;;;;10478143;28;20232;-73
2023/02/13 04:44:59;;;;;;;14.10;10.20;;;5.30;42.20;;;;;;10475335;28;20243;-73
2023/02/13 04:50:03;;;;;;;10.00;9.10;;;5.30;42.60;;;;;;10474479;28;20295;-73
2023/02/13 04:55:08;;;;;;;11.27;10.23;;;5.30;41.90;;;;;;10477121;28;20707;-74
2023/02/13 05:00:12;;;;;;;10.47;9.47;;;5.30;42.20;;;;;;10476394;28;20680;-73
2023/02/13 05:05:15;;;;;;;29.17;9.60;;;5.30;42.00;;;;;;10477153;28;20441;-73
2023/02/13 05:10:20;;;;;;;8.67;7.90;;;5.30;41.80;;;;;;10479069;28;20232;-73
2023/02/13 05:15:23;;;;;;;20.73;9.53;;;5.30;41.80;;;;;;10473221;28;20233;-73
2023/02/13 05:20:27;;;;;;;10.33;9.33;;;5.20;41.60;;;;;;10481063;28;20696;-73
2023/02/13 05:25:32;;;;;;;10.67;9.67;;;5.20;41.80;;;;;;10477695;28;20237;-73
2023/02/13 05:30:35;;;;;;;10.53;9.53;;;5.20;42.20;;;;;;10477960;28;20233;-73
2023/02/13 05:35:38;;;;;;;8.87;8.07;;;5.20;42.10;;;;;;10475214;28;20231;-73
2023/02/13 05:40:43;;;;;;;26.37;10.07;;;5.20;42.10;;;;;;10476004;28;20231;-72
2023/02/13 05:45:47;;;;;;;12.20;10.93;;;5.20;42.20;;;;;;10487265;22;20221;-73
2023/02/13 05:50:50;;;;;;;13.43;12.10;;;5.20;42.00;;;;;;10465916;28;20232;-74
2023/02/13 05:55:54;;;;;;;15.03;12.00;;;5.30;42.00;;;;;;10463551;28;20754;-75
2023/02/13 06:00:58;;;;;;;10.80;9.70;;;5.30;42.20;;;;;;10465300;28;20225;-74
2023/02/13 06:06:02;;;;;;;11.33;10.17;;;5.30;42.20;;;;;;10463874;28;20237;-73
2023/02/13 06:11:06;;;;;;;14.00;11.27;;;5.30;42.10;;;;;;10463056;28;20229;-74
2023/02/13 06:16:10;;;;;;;11.67;10.47;;;5.30;42.40;;;;;;10466445;28;20715;-72
2023/02/13 06:21:13;;;;;;;22.83;10.40;;;5.30;42.20;;;;;;10464820;28;20244;-74
2023/02/13 06:26:18;;;;;;;19.00;9.77;;;5.30;43.00;;;;;;10457100;28;20237;-74
2023/02/13 06:31:22;;;;;;;9.67;8.77;;;5.30;42.60;;;;;;10463007;28;20816;-74
2023/02/13 06:36:25;;;;;;;10.60;8.87;;;5.30;42.20;;;;;;10468490;28;20270;-74
2023/02/13 06:41:29;;;;;;;10.77;9.67;;;5.20;42.20;;;;;;10471312;28;20271;-74
2023/02/13 06:46:33;;;;;;;10.83;9.73;;;5.20;42.40;;;;;;10468141;28;20235;-75
2023/02/13 06:51:36;;;;;;;11.53;10.33;;;5.20;42.40;;;;;;10471593;28;20220;-74
2023/02/13 06:56:40;;;;;;;15.67;9.87;;;5.30;42.40;;;;;;10468741;28;20228;-74
2023/02/13 07:01:44;;;;;;;12.07;9.77;;;5.30;42.50;;;;;;10472833;28;20220;-75
2023/02/13 07:06:47;;;;;;;10.47;9.43;;;5.30;42.20;;;;;;10471630;28;20232;-74
2023/02/13 07:11:51;;;;;;;10.43;9.43;;;5.20;42.10;;;;;;10471560;28;20319;-74
2023/02/13 07:16:55;;;;;;;10.43;9.50;;;5.20;42.40;;;;;;10472633;28;20243;-74
2023/02/13 07:21:58;;;;;;;10.50;9.50;;;5.30;42.30;;;;;;10471140;28;20239;-75
2023/02/13 07:27:02;;;;;;;12.17;8.87;;;5.30;42.40;;;;;;10473660;28;20240;-75
2023/02/13 07:32:07;;;;;;;9.73;8.73;;;5.30;42.40;;;;;;10466447;28;20845;-73
2023/02/13 07:37:11;;;;;;;9.80;8.80;;;5.30;42.30;;;;;;10474662;28;20311;-76
2023/02/13 07:42:15;;;;;;;10.57;9.50;;;5.30;42.50;;;;;;10462828;28;20228;-75
2023/02/13 07:47:19;;;;;;;10.17;9.17;;;5.30;42.70;;;;;;10457438;28;20725;-74
2023/02/13 07:52:22;;;;;;;11.27;10.17;;;5.40;42.60;;;;;;10469910;28;20264;-74
2023/02/13 07:57:26;;;;;;;9.40;8.50;;;5.40;42.40;;;;;;10459834;28;20240;-74
2023/02/13 08:02:30;;;;;;;36.73;9.93;;;5.40;42.50;;;;;;10460798;28;20273;-74
2023/02/13 08:07:33;;;;;;;34.43;8.97;;;5.40;42.00;;;;;;10456627;28;20426;-75
2023/02/13 08:12:37;;;;;;;10.07;9.07;;;5.30;42.00;;;;;;10458024;28;20231;-74
2023/02/13 08:17:41;;;;;;;13.37;9.50;;;5.20;42.30;;;;;;10456617;28;20695;-74
2023/02/13 08:22:44;;;;;;;11.27;9.13;;;5.20;42.30;;;;;;10460872;28;20738;-74
2023/02/13 08:27:48;;;;;;;9.77;8.77;;;5.20;42.30;;;;;;10461564;28;20743;-75
2023/02/13 08:32:51;;;;;;;25.30;10.57;;;5.20;42.50;;;;;;10460551;28;20224;-74
2023/02/13 08:37:56;;;;;;;9.10;8.20;;;5.10;42.30;;;;;;10458785;28;20225;-74
2023/02/13 08:43:02;;;;;;;9.57;8.67;;;5.10;42.60;;;;;;10462974;28;20726;-75
2023/02/13 08:48:06;;;;;;;8.70;7.87;;;5.10;42.80;;;;;;10461135;28;20228;-74
2023/02/13 08:53:09;;;;;;;10.80;9.73;;;5.20;42.70;;;;;;10460245;28;20327;-74
2023/02/13 08:58:14;;;;;;;23.87;10.83;;;5.20;42.90;;;;;;10457030;28;20229;-75
2023/02/13 09:03:17;;;;;;;16.80;11.60;;;5.30;43.00;;;;;;10460359;28;20594;-74
2023/02/13 09:08:20;;;;;;;12.03;10.63;;;5.30;42.80;;;;;;10458115;28;20791;-74
2023/02/13 09:13:25;;;;;;;13.50;9.97;;;5.30;42.80;;;;;;10454274;28;20703;-74
2023/02/13 09:18:28;;;;;;;14.33;11.13;;;5.30;43.00;;;;;;10457110;28;20590;-74
2023/02/13 09:23:32;;;;;;;13.17;9.83;;;5.30;43.00;;;;;;10461249;28;20232;-74
2023/02/13 09:28:37;;;;;;;22.23;10.20;;;5.40;43.00;;;;;;10457298;28;20746;-75
2023/02/13 09:33:41;;;;;;;14.13;10.40;;;5.40;43.10;;;;;;10459226;28;20239;-76
2023/02/13 09:38:44;;;;;;;11.37;10.27;;;5.30;42.60;;;;;;10459831;28;20224;-76
2023/02/13 09:43:52;;;;;;;18.27;11.13;;;5.30;43.00;;;;;;10459768;28;20237;-76
2023/02/13 09:48:59;;;;;;;11.40;10.20;;;5.30;43.00;;;;;;10454484;28;20690;-76
2023/02/13 09:54:04;;;;;;;12.30;10.77;;;5.30;43.00;;;;;;10457788;28;20240;-76
2023/02/13 09:59:26;;;;;;;12.90;11.67;;;5.30;43.00;;;;;;10456612;28;20228;-76
2023/02/13 10:04:36;;;;;;;10.67;9.57;;;5.40;43.70;;;;;;10457363;28;20232;-76
2023/02/13 10:09:47;;;;;;;12.43;11.23;;;5.40;43.10;;;;;;10458052;28;20348;-77
2023/02/13 10:15:04;;;;;;;11.90;10.70;;;5.40;43.20;;;;;;10463219;28;20228;-76
2023/02/13 10:20:17;;;;;;;12.23;11.03;;;5.40;43.90;;;;;;10473814;28;20221;-77
2023/02/13 10:25:25;;;;;;;11.10;10.03;;;5.50;43.50;;;;;;10471216;28;20240;-77
2023/02/13 10:30:32;;;;;;;12.23;11.03;;;5.60;43.70;;;;;;10470534;28;20232;-76
2023/02/13 10:35:36;;;;;;;10.23;9.27;;;5.60;43.60;;;;;;10475374;28;20242;-76
2023/02/13 10:40:44;;;;;;;10.83;9.83;;;5.70;43.30;;;;;;10473103;28;20237;-77
2023/02/13 10:46:02;;;;;;;10.93;9.77;;;5.70;43.60;;;;;;10466918;28;20581;-74
2023/02/13 10:51:12;;;;;;;11.93;10.83;;;5.80;44.80;;;;;;10459898;28;20232;-74
2023/02/13 10:56:31;;;;;;;11.50;10.37;;;5.90;43.90;;;;;;10459765;28;20225;-74
2023/02/13 11:01:45;;;;;;;11.50;9.47;;;5.90;44.10;;;;;;10462759;28;20650;-75
2023/02/13 11:06:55;;;;;;;11.73;10.57;;;6.00;44.40;;;;;;10459995;28;20232;-75
2023/02/13 11:11:59;;;;;;;11.73;10.63;;;6.10;43.90;;;;;;10465677;28;20220;-74
2023/02/13 11:17:05;;;;;;;12.13;10.93;;;6.10;43.60;;;;;;10464638;28;20302;-77
2023/02/13 11:22:12;;;;;;;11.30;10.23;;;6.20;44.00;;;;;;10455793;28;20228;-76
2023/02/13 11:27:16;;;;;;;11.50;10.40;;;6.30;43.80;;;;;;10461495;28;20239;-76
2023/02/13 11:32:23;;;;;;;11.33;10.10;;;6.40;43.90;;;;;;10468876;28;20232;-75
2023/02/13 11:37:28;;;;;;;12.37;11.17;;;6.40;44.10;;;;;;10467005;28;20323;-72
2023/02/13 11:42:34;;;;;;;12.87;11.53;;;6.50;43.90;;;;;;10470624;28;20316;-71
2023/02/13 11:47:55;;;;;;;11.57;10.43;;;6.60;44.00;;;;;;10463464;28;20233;-72
2023/02/13 11:53:01;;;;;;;12.07;10.97;;;6.70;44.70;;;;;;10467759;28;20232;-71
2023/02/13 11:58:23;;;;;;;12.67;11.47;;;6.80;44.20;;;;;;10470181;28;20227;-72
2023/02/13 12:03:31;;;;;;;11.60;10.50;;;6.90;44.30;;;;;;10468681;28;20263;-72
2023/02/13 12:08:37;;;;;;;11.30;10.20;;;6.90;44.30;;;;;;10465009;28;20677;-72
2023/02/13 12:13:40;;;;;;;10.73;9.73;;;7.00;44.30;;;;;;10467519;28;20220;-72
2023/02/13 12:18:49;;;;;;;11.07;9.30;;;7.10;44.30;;;;;;10466534;28;20233;-72
2023/02/13 12:24:00;;;;;;;11.23;10.13;;;7.20;44.20;;;;;;10469004;28;20228;-72
2023/02/13 12:29:40;;;;;;;13.47;10.73;;;7.30;44.10;;;;;;10465824;28;20604;-72
2023/02/13 12:35:22;;;;;;;13.43;10.63;;;7.30;44.50;;;;;;10466331;28;20313;-71
2023/02/13 12:40:58;;;;;;;12.73;11.53;;;7.40;45.80;;;;;;10467252;28;20223;-71
2023/02/13 12:46:06;;;;;;;12.17;11.07;;;7.60;44.80;;;;;;10468907;28;20328;-72
2023/02/13 12:51:37;;;;;;;12.90;11.70;;;7.70;43.90;;;;;;10469149;28;20243;-71
2023/02/13 12:56:54;;;;;;;11.73;10.63;;;7.70;44.10;;;;;;10463928;28;20252;-71
2023/02/13 13:02:23;;;;;;;12.40;11.13;;;7.70;44.30;;;;;;10466834;28;20731;-75
2023/02/13 13:07:44;;;;;;;11.30;10.27;;;7.70;44.40;;;;;;10463942;28;20248;-71
2023/02/13 13:12:56;;;;;;;13.33;11.93;;;7.70;44.40;;;;;;10462344;28;20239;-71
2023/02/13 13:18:08;;;;;;;12.77;11.57;;;7.80;44.00;;;;;;10461348;28;20233;-71
2023/02/13 13:23:18;;;;;;;12.63;11.33;;;7.90;44.10;;;;;;10458711;28;20230;-71
2023/02/13 13:28:24;;;;;;;12.33;11.07;;;7.90;44.10;;;;;;10463279;28;20309;-71
2023/02/13 13:33:28;;;;;;;13.80;12.33;;;7.90;43.80;;;;;;10461871;28;20254;-71
2023/02/13 13:38:42;;;;;;;14.70;13.20;;;7.90;43.50;;;;;;10463649;28;20233;-71
2023/02/13 13:44:00;;;;;;;13.53;12.20;;;7.90;43.70;;;;;;10469733;28;20598;-71
2023/02/13 13:49:14;;;;;;;14.13;12.63;;;7.90;43.80;;;;;;10460112;28;20231;-72
2023/02/13 13:54:32;;;;;;;14.47;12.97;;;7.80;43.90;;;;;;10467383;28;20236;-71
2023/02/13 13:59:59;;;;;;;13.93;12.53;;;7.80;44.00;;;;;;10460927;28;20252;-70
2023/02/13 14:05:17;;;;;;;13.10;11.73;;;7.80;44.00;;;;;;10466463;28;20282;-74
2023/02/13 14:11:08;;;;;;;13.43;12.13;;;7.90;44.10;;;;;;10462411;28;20227;-73
2023/02/13 14:16:32;;;;;;;13.33;12.07;;;7.90;44.20;;;;;;10461567;28;20235;-72
2023/02/13 14:21:36;;;;;;;13.57;12.20;;;8.00;43.80;;;;;;10463900;28;20712;-71
2023/02/13 14:26:40;;;;;;;14.03;12.67;;;8.00;43.60;;;;;;10463440;28;20228;-72
2023/02/13 14:31:58;;;;;;;12.80;11.43;;;8.00;43.50;;;;;;10464864;28;20239;-72
2023/02/13 14:37:23;;;;;;;14.33;13.00;;;8.00;43.70;;;;;;10462350;28;20309;-71
2023/02/13 14:42:29;;;;;;;13.90;12.60;;;7.90;43.80;;;;;;10466753;28;20228;-72
2023/02/13 14:47:39;;;;;;;14.90;13.50;;;7.90;43.70;;;;;;10464760;28;21270;-72
2023/02/13 14:52:46;;;;;;;13.13;11.80;;;7.90;43.90;;;;;;10463774;28;20233;-73
2023/02/13 14:57:52;;;;;;;12.47;11.30;;;8.00;43.90;;;;;;10470024;28;20224;-72
2023/02/13 15:03:03;;;;;;;10.83;9.73;;;8.00;43.60;;;;;;10472690;28;20236;-73
2023/02/13 15:08:15;;;;;;;12.67;11.37;;;8.00;45.20;;;;;;10471755;28;20232;-72
2023/02/13 15:13:21;;;;;;;12.50;11.30;;;8.10;44.30;;;;;;10469185;28;20704;-72
2023/02/13 15:18:29;;;;;;;11.83;10.73;;;8.20;43.90;;;;;;10469723;28;20572;-73
2023/02/13 15:23:34;;;;;;;12.23;11.03;;;8.30;43.70;;;;;;10471569;28;20237;-71
2023/02/13 15:28:37;;;;;;;12.37;11.10;;;8.30;43.60;;;;;;10468669;28;20224;-71
2023/02/13 15:33:46;;;;;;;12.23;11.13;;;8.30;43.50;;;;;;10470831;28;20228;-71
2023/02/13 15:38:49;;;;;;;11.00;10.00;;;8.40;43.40;;;;;;10467366;28;20227;-71
2023/02/13 15:43:56;;;;;;;12.03;10.90;;;8.40;43.30;;;;;;10467419;28;20243;-71
2023/02/13 15:49:05;;;;;;;12.70;11.53;;;8.40;43.20;;;;;;10468142;28;20593;-70
2023/02/13 15:54:23;;;;;;;12.50;11.33;;;8.40;43.30;;;;;;10468918;28;20778;-70
2023/02/13 15:59:31;;;;;;;13.40;11.60;;;8.40;43.30;;;;;;10471670;28;20238;-73
2023/02/13 16:04:36;;;;;;;14.00;12.60;;;8.50;43.10;;;;;;10469954;28;20236;-71
2023/02/13 16:09:40;;;;;;;13.93;12.57;;;8.50;43.00;;;;;;10466992;28;20267;-71
2023/02/13 16:14:49;;;;;;;14.50;13.10;;;8.50;43.10;;;;;;10467776;28;20301;-71
2023/02/13 16:19:57;;;;;;;14.30;12.77;;;8.40;43.00;;;;;;10468049;28;21085;-71
2023/02/13 16:25:15;;;;;;;18.47;15.03;;;8.40;43.00;;;;;;10465954;28;20224;-72
2023/02/13 16:30:29;;;;;;;14.20;12.80;;;8.50;43.00;;;;;;10464452;28;20229;-71
2023/02/13 16:35:38;;;;;;;14.77;13.27;;;8.40;42.80;;;;;;10463654;28;20315;-71
2023/02/13 16:40:44;;;;;;;14.17;12.77;;;8.40;42.80;;;;;;10465372;28;20225;-71
2023/02/13 16:45:48;;;;;;;15.27;13.77;;;8.30;42.90;;;;;;10463963;28;20239;-71
2023/02/13 16:50:56;;;;;;;14.80;13.50;;;8.30;42.90;;;;;;10466764;28;20259;-71
2023/02/13 16:56:03;;;;;;;15.13;13.73;;;8.30;42.90;;;;;;10463823;28;20627;-73
2023/02/13 17:01:06;;;;;;;15.40;13.93;;;8.30;43.30;;;;;;10467549;28;20221;-71
2023/02/13 17:06:11;;;;;;;15.60;14.10;;;8.30;43.40;;;;;;10463918;28;20311;-73
2023/02/13 17:11:18;;;;;;;14.20;12.90;;;8.40;43.20;;;;;;10466782;28;21349;-71
2023/02/13 17:16:21;;;;;;;16.03;14.47;;;8.40;43.10;;;;;;10463349;28;20236;-71
2023/02/13 17:21:26;;;;;;;15.60;13.97;;;8.50;42.90;;;;;;10464069;28;20236;-71
2023/02/13 17:26:29;;;;;;;15.07;13.67;;;8.50;42.80;;;;;;10464540;28;20240;-71
2023/02/13 17:31:32;;;;;;;15.13;13.67;;;8.50;42.80;;;;;;10465613;28;20224;-71
2023/02/13 17:36:37;;;;;;;16.50;14.90;;;8.40;42.50;;;;;;10461995;28;20644;-71
2023/02/13 17:41:41;;;;;;;15.73;14.13;;;8.40;42.70;;;;;;10465694;28;20229;-71
2023/02/13 17:46:44;;;;;;;14.80;13.40;;;8.30;42.70;;;;;;10465547;28;20644;-71
2023/02/13 17:51:49;;;;;;;18.40;16.60;;;8.40;42.90;;;;;;10464481;28;20235;-73
2023/02/13 17:56:52;;;;;;;16.40;14.77;;;8.40;43.10;;;;;;10463259;28;20228;-71
2023/02/13 18:01:55;;;;;;;15.47;13.97;;;8.50;42.90;;;;;;10464320;28;20245;-74
2023/02/13 18:07:00;;;;;;;15.13;13.70;;;8.40;42.60;;;;;;10463932;28;20319;-74
2023/02/13 18:12:03;;;;;;;14.53;13.20;;;8.40;42.60;;;;;;10460700;28;20235;-73
2023/02/13 18:17:08;;;;;;;15.10;13.67;;;8.30;42.50;;;;;;10464952;28;20233;-74
2023/02/13 18:22:12;;;;;;;15.63;14.00;;;8.20;42.50;;;;;;10464725;28;20244;-74
2023/02/13 18:27:16;;;;;;;15.43;13.73;;;8.20;42.70;;;;;;10463557;28;20233;-74
2023/02/13 18:32:20;;;;;;;14.37;13.07;;;8.10;42.60;;;;;;10466985;28;20243;-74
2023/02/13 18:37:27;;;;;;;17.93;16.27;;;8.00;42.70;;;;;;10470813;28;20604;-74
2023/02/13 18:42:30;;;;;;;16.10;14.60;;;8.00;42.70;;;;;;10473888;28;20221;-74
2023/02/13 18:47:33;;;;;;;18.63;16.77;;;8.00;42.80;;;;;;10468458;28;20240;-74
2023/02/13 18:52:37;;;;;;;18.57;16.80;;;8.00;42.90;;;;;;10468041;28;20232;-74
2023/02/13 18:57:42;;;;;;;16.50;14.97;;;7.90;43.40;;;;;;10475710;28;20232;-74
2023/02/13 19:02:47;;;;;;;17.60;15.80;;;7.90;42.90;;;;;;10467313;28;20228;-74
2023/02/13 19:07:52;;;;;;;17.90;16.10;;;7.90;42.80;;;;;;10469383;28;20856;-74
2023/02/13 19:12:55;;;;;;;16.97;15.27;;;7.80;42.70;;;;;;10473596;28;20244;-74
2023/02/13 19:17:58;;;;;;;17.30;15.60;;;7.80;42.90;;;;;;10455831;28;20232;-74
2023/02/13 19:23:03;;;;;;;17.37;15.67;;;7.70;42.80;;;;;;10462800;28;20232;-74
2023/02/13 19:28:06;;;;;;;18.07;16.20;;;7.70;43.00;;;;;;10463119;28;20227;-73
2023/02/13 19:33:09;;;;;;;17.40;15.70;;;7.70;43.00;;;;;;10466030;28;20236;-73
2023/02/13 19:38:14;;;;;;;17.60;15.77;;;7.60;42.90;;;;;;10461917;28;20236;-73
2023/02/13 19:43:18;;;;;;;17.13;15.43;;;7.60;43.10;;;;;;10458055;28;20751;-73
2023/02/13 19:48:21;;;;;;;17.20;15.50;;;7.50;43.00;;;;;;10460278;28;20262;-70
2023/02/13 19:53:26;;;;;;;17.87;16.03;;;7.50;43.10;;;;;;10459182;28;20255;-70
2023/02/13 19:58:29;;;;;;;18.33;16.47;;;7.40;43.20;;;;;;10468133;28;20228;-70
2023/02/13 20:03:32;;;;;;;18.57;16.67;;;7.40;43.10;;;;;;10466702;28;20235;-70
2023/02/13 20:08:38;;;;;;;18.33;16.43;;;7.40;43.00;;;;;;10462727;28;20789;-69
2023/02/13 20:13:45;;;;;;;16.23;14.67;;;7.40;43.20;;;;;;10467595;28;20704;-70
2023/02/13 20:18:48;;;;;;;17.57;15.77;;;7.50;43.20;;;;;;10455752;28;20234;-70
2023/02/13 20:23:52;;;;;;;16.97;15.27;;;7.50;43.20;;;;;;10468818;28;20220;-70
2023/02/13 20:28:56;;;;;;;18.23;16.33;;;7.50;43.20;;;;;;10460227;28;20767;-70
2023/02/13 20:33:59;;;;;;;16.57;14.70;;;7.50;43.20;;;;;;10461102;28;20232;-70
2023/02/13 20:39:06;;;;;;;16.77;15.10;;;7.50;43.20;;;;;;10452358;28;20231;-70
2023/02/13 20:44:12;;;;;;;16.30;14.60;;;7.50;43.20;;;;;;10457865;28;20233;-73
2023/02/13 20:49:20;;;;;;;16.27;14.57;;;7.50;43.10;;;;;;10453559;28;20224;-70
2023/02/13 20:54:31;;;;;;;15.87;14.27;;;7.60;43.10;;;;;;10454860;22;20238;-70
2023/02/13 20:59:34;;;;;;;17.20;15.40;;;7.60;43.40;;;;;;10442747;28;20224;-70
2023/02/13 21:04:37;;;;;;;17.27;15.57;;;7.60;43.10;;;;;;10420815;28;20236;-70
2023/02/13 21:09:44;;;;;;;17.90;16.00;;;7.60;43.10;;;;;;10388736;28;20233;-70
2023/02/13 21:14:47;;;;;;;17.87;15.97;;;7.60;43.20;;;;;;10396578;28;20225;-70
2023/02/13 21:19:51;;;;;;;17.93;16.07;;;7.60;43.00;;;;;;10389315;28;20234;-70
2023/02/13 21:24:55;;;;;;;17.67;15.80;;;7.70;43.00;;;;;;10385433;28;20794;-70
2023/02/13 21:29:58;;;;;;;18.23;15.87;;;7.70;43.00;;;;;;10382116;28;20570;-70
2023/02/13 21:35:02;;;;;;;19.33;17.33;;;7.60;42.90;;;;;;10383925;28;20242;-71
2023/02/13 21:40:08;;;;;;;16.23;14.53;;;7.60;43.00;;;;;;10389283;28;20240;-70
2023/02/13 21:45:11;;;;;;;17.73;15.83;;;7.60;43.20;;;;;;10386688;28;20233;-70
2023/02/13 21:50:14;;;;;;;19.33;16.67;;;7.60;43.10;;;;;;10381412;28;20693;-70
2023/02/13 21:55:19;;;;;;;18.43;16.47;;;7.60;43.10;;;;;;10384645;28;20244;-70
2023/02/13 22:00:22;;;;;;;19.60;17.53;;;7.50;43.20;;;;;;10387855;28;20249;-70
2023/02/13 22:05:25;;;;;;;21.67;18.17;;;7.50;43.30;;;;;;10385998;28;20593;-70
2023/02/13 22:10:30;;;;;;;19.70;17.40;;;7.40;43.20;;;;;;10391504;28;20702;-70
2023/02/13 22:15:33;;;;;;;20.50;17.70;;;7.40;43.40;;;;;;10395607;28;20256;-70
2023/02/13 22:20:36;;;;;;;20.40;17.77;;;7.40;43.50;;;;;;10388591;28;20232;-70
2023/02/13 22:25:47;;;;;;;21.57;18.20;;;7.40;43.50;;;;;;10405665;28;20815;-70
2023/02/13 22:30:50;;;;;;;21.73;18.20;;;7.40;43.80;;;;;;10392684;28;20257;-70
2023/02/13 22:35:53;;;;;;;22.77;17.93;;;7.40;43.40;;;;;;10406744;28;20232;-70
2023/02/13 22:41:04;;;;;;;21.97;19.07;;;7.40;43.50;;;;;;10393023;28;20292;-70
2023/02/13 22:46:11;;;;;;;21.90;18.30;;;7.40;43.80;;;;;;10392840;28;20624;-70
2023/02/13 22:51:16;;;;;;;22.80;19.63;;;7.40;43.60;;;;;;10400818;28;20233;-70
2023/02/13 22:56:22;;;;;;;24.03;20.53;;;7.40;43.40;;;;;;10388983;28;20241;-70
2023/02/13 23:01:26;;;;;;;23.40;19.50;;;7.40;43.40;;;;;;10391660;28;20744;-70
2023/02/13 23:06:30;;;;;;;24.63;19.90;;;7.30;43.40;;;;;;10400640;28;20264;-70
2023/02/13 23:22:15;;;;;;;21.97;18.67;;;7.20;43.40;;;;;;10389070;28;20221;-70
2023/02/13 23:27:20;;;;;;;23.33;19.17;;;7.20;43.30;;;;;;10396206;28;20237;-70
2023/02/13 23:32:23;;;;;;;22.07;18.10;;;7.20;43.50;;;;;;10389077;28;20238;-68
2023/02/13 23:37:26;;;;;;;24.27;19.23;;;7.10;43.30;;;;;;10399416;28;20238;-70
2023/02/13 23:42:31;;;;;;;24.37;18.87;;;7.10;43.40;;;;;;10400337;28;20489;-70
2023/02/13 23:47:34;;;;;;;26.93;19.97;;;7.00;43.40;;;;;;10390867;28;20226;-70
2023/02/13 23:52:38;;;;;;;21.47;17.80;;;6.90;43.30;;;;;;10397175;28;20233;-70
2023/02/13 23:57:42;;;;;;;22.13;18.50;;;6.90;43.40;;;;;;10393031;28;20241;-70
